sensor_id;sensor_type;location;lat;lon;timestamp;P1;durP1;ratioP1;P2;durP2;ratioP2
37517;SDS011;23366;52.498;13.446;2023-12-07T00:02:17;20.50;;;9.18;;
37517;SDS011;23366;52.498;13.446;2023-12-07T00:04:43;18.58;;;10.60;;
37517;SDS011;23366;52.498;13.446;2023-12-07T00:07:09;21.60;;;10.10;;
37517;SDS011;23366;52.498;13.446;2023-12-07T00:09:35;17.20;;;10.35;;
37517;SDS011;23366;52.498;13.446;2023-12-07T00:12:01;16.95;;;9.98;;
37517;SDS011;23366;52.498;13.446;2023-12-07T00:14:26;27.38;;;10.32;;
37517;SDS011;23366;52.498;13.446;2023-12-07T00:16:52;19.73;;;8.65;;
37517;SDS011;23366;52.498;13.446;2023-12-07T00:19:19;18.20;;;9.30;;
37517;SDS011;23366;52.498;13.446;2023-12-07T00:21:45;18.80;;;9.88;;
37517;SDS011;23366;52.498;13.446;2023-12-07T00:24:11;19.15;;;8.43;;
37517;SDS011;23366;52.498;13.446;2023-12-07T00:26:37;20.95;;;10.77;;
37517;SDS011;23366;52.498;13.446;2023-12-07T00:29:03;17.83;;;8.60;;
37517;SDS011;23366;52.498;13.446;2023-12-07T00:31:29;22.88;;;10.77;;
37517;SDS011;23366;52.498;13.446;2023-12-07T00:33:55;17.30;;;8.77;;
37517;SDS011;23366;52.498;13.446;2023-12-07T00:36:21;21.38;;;11.07;;
37517;SDS011;23366;52.498;13.446;2023-12-07T00:38:47;24.63;;;10.00;;
37517;SDS011;23366;52.498;13.446;2023-12-07T00:41:13;18.85;;;9.27;;
37517;SDS011;23366;52.498;13.446;2023-12-07T00:43:39;21.17;;;10.65;;
37517;SDS011;23366;52.498;13.446;2023-12-07T00:46:08;26.10;;;10.25;;
37517;SDS011;23366;52.498;13.446;2023-12-07T00:48:34;21.23;;;11.00;;
37517;SDS011;23366;52.498;13.446;2023-12-07T00:51:00;18.38;;;9.27;;
37517;SDS011;23366;52.498;13.446;2023-12-07T00:53:26;23.83;;;10.45;;
37517;SDS011;23366;52.498;13.446;2023-12-07T00:55:52;21.15;;;11.52;;
37517;SDS011;23366;52.498;13.446;2023-12-07T00:58:18;22.98;;;10.98;;
37517;SDS011;23366;52.498;13.446;2023-12-07T01:00:44;19.73;;;9.85;;
37517;SDS011;23366;52.498;13.446;2023-12-07T01:03:10;21.65;;;11.38;;
37517;SDS011;23366;52.498;13.446;2023-12-07T01:05:36;18.90;;;10.65;;
37517;SDS011;23366;52.498;13.446;2023-12-07T01:08:02;17.75;;;9.32;;
37517;SDS011;23366;52.498;13.446;2023-12-07T01:10:28;19.85;;;8.45;;
37517;SDS011;23366;52.498;13.446;2023-12-07T01:12:54;16.98;;;9.23;;
37517;SDS011;23366;52.498;13.446;2023-12-07T01:15:20;21.25;;;11.80;;
37517;SDS011;23366;52.498;13.446;2023-12-07T01:17:46;23.17;;;11.18;;
37517;SDS011;23366;52.498;13.446;2023-12-07T01:20:12;18.85;;;10.05;;
37517;SDS011;23366;52.498;13.446;2023-12-07T01:22:39;19.00;;;10.35;;
37517;SDS011;23366;52.498;13.446;2023-12-07T01:25:06;16.40;;;9.93;;
37517;SDS011;23366;52.498;13.446;2023-12-07T01:27:32;18.10;;;8.63;;
37517;SDS011;23366;52.498;13.446;2023-12-07T01:29:58;14.93;;;7.72;;
37517;SDS011;23366;52.498;13.446;2023-12-07T01:32:25;15.38;;;8.35;;
37517;SDS011;23366;52.498;13.446;2023-12-07T01:34:51;22.05;;;10.32;;
37517;SDS011;23366;52.498;13.446;2023-12-07T01:37:17;18.83;;;9.63;;
37517;SDS011;23366;52.498;13.446;2023-12-07T01:39:43;21.88;;;10.32;;
37517;SDS011;23366;52.498;13.446;2023-12-07T01:42:09;17.58;;;9.43;;
37517;SDS011;23366;52.498;13.446;2023-12-07T01:44:37;20.67;;;9.80;;
37517;SDS011;23366;52.498;13.446;2023-12-07T01:47:03;16.15;;;8.48;;
37517;SDS011;23366;52.498;13.446;2023-12-07T01:49:29;23.45;;;8.90;;
37517;SDS011;23366;52.498;13.446;2023-12-07T01:51:56;28.33;;;14.15;;
37517;SDS011;23366;52.498;13.446;2023-12-07T01:54:22;26.50;;;10.63;;
37517;SDS011;23366;52.498;13.446;2023-12-07T01:56:49;21.75;;;8.55;;
37517;SDS011;23366;52.498;13.446;2023-12-07T01:59:15;24.52;;;11.32;;
37517;SDS011;23366;52.498;13.446;2023-12-07T02:01:41;21.10;;;9.60;;
37517;SDS011;23366;52.498;13.446;2023-12-07T02:04:07;15.23;;;8.55;;
37517;SDS011;23366;52.498;13.446;2023-12-07T02:06:33;18.33;;;9.38;;
37517;SDS011;23366;52.498;13.446;2023-12-07T02:08:59;16.52;;;8.95;;
37517;SDS011;23366;52.498;13.446;2023-12-07T02:11:25;18.63;;;10.95;;
37517;SDS011;23366;52.498;13.446;2023-12-07T02:13:51;18.92;;;9.57;;
37517;SDS011;23366;52.498;13.446;2023-12-07T02:19:24;19.13;;;9.05;;
37517;SDS011;23366;52.498;13.446;2023-12-07T02:21:52;20.25;;;10.45;;
37517;SDS011;23366;52.498;13.446;2023-12-07T02:24:20;19.65;;;9.80;;
37517;SDS011;23366;52.498;13.446;2023-12-07T02:26:47;19.88;;;10.45;;
37517;SDS011;23366;52.498;13.446;2023-12-07T02:29:13;20.52;;;9.85;;
37517;SDS011;23366;52.498;13.446;2023-12-07T02:31:39;15.60;;;8.98;;
37517;SDS011;23366;52.498;13.446;2023-12-07T02:34:05;19.00;;;9.45;;
37517;SDS011;23366;52.498;13.446;2023-12-07T02:36:31;17.08;;;8.45;;
37517;SDS011;23366;52.498;13.446;2023-12-07T02:38:58;19.77;;;10.27;;
37517;SDS011;23366;52.498;13.446;2023-12-07T02:41:26;16.02;;;7.95;;
37517;SDS011;23366;52.498;13.446;2023-12-07T02:43:53;16.48;;;9.27;;
37517;SDS011;23366;52.498;13.446;2023-12-07T02:46:19;19.20;;;10.13;;
37517;SDS011;23366;52.498;13.446;2023-12-07T02:48:45;19.45;;;9.30;;
37517;SDS011;23366;52.498;13.446;2023-12-07T02:51:11;19.33;;;9.25;;
37517;SDS011;23366;52.498;13.446;2023-12-07T02:53:37;17.50;;;10.07;;
37517;SDS011;23366;52.498;13.446;2023-12-07T02:56:03;18.65;;;8.88;;
37517;SDS011;23366;52.498;13.446;2023-12-07T02:58:29;19.88;;;9.77;;
37517;SDS011;23366;52.498;13.446;2023-12-07T03:00:55;15.80;;;9.25;;
37517;SDS011;23366;52.498;13.446;2023-12-07T03:03:21;19.55;;;9.25;;
37517;SDS011;23366;52.498;13.446;2023-12-07T03:05:47;20.40;;;10.48;;
37517;SDS011;23366;52.498;13.446;2023-12-07T03:08:13;18.38;;;9.13;;
37517;SDS011;23366;52.498;13.446;2023-12-07T03:10:39;17.33;;;9.13;;
37517;SDS011;23366;52.498;13.446;2023-12-07T03:13:05;18.08;;;8.77;;
37517;SDS011;23366;52.498;13.446;2023-12-07T03:15:31;22.55;;;11.07;;
37517;SDS011;23366;52.498;13.446;2023-12-07T03:17:58;18.58;;;10.40;;
37517;SDS011;23366;52.498;13.446;2023-12-07T03:20:24;16.17;;;9.27;;
37517;SDS011;23366;52.498;13.446;2023-12-07T03:22:50;16.77;;;8.98;;
37517;SDS011;23366;52.498;13.446;2023-12-07T03:25:16;20.27;;;10.82;;
37517;SDS011;23366;52.498;13.446;2023-12-07T03:27:42;20.35;;;10.52;;
37517;SDS011;23366;52.498;13.446;2023-12-07T03:30:08;16.83;;;8.05;;
37517;SDS011;23366;52.498;13.446;2023-12-07T03:32:34;19.58;;;9.43;;
37517;SDS011;23366;52.498;13.446;2023-12-07T03:35:00;22.05;;;9.80;;
37517;SDS011;23366;52.498;13.446;2023-12-07T03:37:26;17.58;;;9.60;;
37517;SDS011;23366;52.498;13.446;2023-12-07T03:39:52;19.50;;;10.43;;
37517;SDS011;23366;52.498;13.446;2023-12-07T03:42:18;18.33;;;10.45;;
37517;SDS011;23366;52.498;13.446;2023-12-07T03:44:43;18.33;;;9.80;;
37517;SDS011;23366;52.498;13.446;2023-12-07T03:47:10;20.42;;;9.90;;
37517;SDS011;23366;52.498;13.446;2023-12-07T03:49:36;18.05;;;10.57;;
37517;SDS011;23366;52.498;13.446;2023-12-07T03:52:03;20.17;;;9.77;;
37517;SDS011;23366;52.498;13.446;2023-12-07T03:54:29;16.30;;;9.20;;
37517;SDS011;23366;52.498;13.446;2023-12-07T03:56:55;20.85;;;10.35;;
37517;SDS011;23366;52.498;13.446;2023-12-07T03:59:21;21.05;;;9.40;;
37517;SDS011;23366;52.498;13.446;2023-12-07T04:01:47;19.23;;;11.20;;
37517;SDS011;23366;52.498;13.446;2023-12-07T04:04:13;22.30;;;10.77;;
37517;SDS011;23366;52.498;13.446;2023-12-07T04:06:40;21.92;;;11.50;;
37517;SDS011;23366;52.498;13.446;2023-12-07T04:09:06;21.73;;;10.63;;
37517;SDS011;23366;52.498;13.446;2023-12-07T04:11:32;18.92;;;10.02;;
37517;SDS011;23366;52.498;13.446;2023-12-07T04:13:58;26.85;;;11.85;;
37517;SDS011;23366;52.498;13.446;2023-12-07T04:16:24;19.70;;;9.90;;
37517;SDS011;23366;52.498;13.446;2023-12-07T04:18:50;21.80;;;9.95;;
37517;SDS011;23366;52.498;13.446;2023-12-07T04:21:16;26.52;;;11.20;;
37517;SDS011;23366;52.498;13.446;2023-12-07T04:23:42;22.80;;;11.43;;
37517;SDS011;23366;52.498;13.446;2023-12-07T04:26:08;28.27;;;12.60;;
37517;SDS011;23366;52.498;13.446;2023-12-07T04:28:34;25.70;;;11.93;;
37517;SDS011;23366;52.498;13.446;2023-12-07T04:31:00;22.30;;;12.25;;
37517;SDS011;23366;52.498;13.446;2023-12-07T04:33:26;23.02;;;11.32;;
37517;SDS011;23366;52.498;13.446;2023-12-07T04:35:52;22.33;;;10.52;;
37517;SDS011;23366;52.498;13.446;2023-12-07T04:38:18;26.25;;;12.75;;
37517;SDS011;23366;52.498;13.446;2023-12-07T04:40:44;30.10;;;12.35;;
37517;SDS011;23366;52.498;13.446;2023-12-07T04:43:10;25.05;;;11.48;;
37517;SDS011;23366;52.498;13.446;2023-12-07T04:45:36;22.17;;;11.60;;
37517;SDS011;23366;52.498;13.446;2023-12-07T04:48:03;24.63;;;13.57;;
37517;SDS011;23366;52.498;13.446;2023-12-07T04:50:29;27.02;;;11.80;;
37517;SDS011;23366;52.498;13.446;2023-12-07T04:52:55;23.70;;;13.45;;
37517;SDS011;23366;52.498;13.446;2023-12-07T04:55:22;22.17;;;11.73;;
37517;SDS011;23366;52.498;13.446;2023-12-07T04:57:48;24.67;;;12.73;;
37517;SDS011;23366;52.498;13.446;2023-12-07T05:00:14;26.58;;;12.68;;
37517;SDS011;23366;52.498;13.446;2023-12-07T05:02:40;21.70;;;13.15;;
37517;SDS011;23366;52.498;13.446;2023-12-07T05:05:06;27.83;;;11.63;;
37517;SDS011;23366;52.498;13.446;2023-12-07T05:07:32;22.92;;;11.77;;
37517;SDS011;23366;52.498;13.446;2023-12-07T05:09:58;26.65;;;11.65;;
37517;SDS011;23366;52.498;13.446;2023-12-07T05:12:24;24.42;;;10.57;;
37517;SDS011;23366;52.498;13.446;2023-12-07T05:14:51;19.25;;;9.80;;
37517;SDS011;23366;52.498;13.446;2023-12-07T05:17:17;28.48;;;11.68;;
37517;SDS011;23366;52.498;13.446;2023-12-07T05:19:44;22.05;;;10.50;;
37517;SDS011;23366;52.498;13.446;2023-12-07T05:22:10;26.42;;;10.70;;
37517;SDS011;23366;52.498;13.446;2023-12-07T05:24:36;22.98;;;10.95;;
37517;SDS011;23366;52.498;13.446;2023-12-07T05:27:02;30.17;;;14.05;;
37517;SDS011;23366;52.498;13.446;2023-12-07T05:29:28;29.73;;;12.27;;
37517;SDS011;23366;52.498;13.446;2023-12-07T05:31:54;22.92;;;10.75;;
37517;SDS011;23366;52.498;13.446;2023-12-07T05:34:20;36.13;;;14.55;;
37517;SDS011;23366;52.498;13.446;2023-12-07T05:36:46;31.73;;;12.63;;
37517;SDS011;23366;52.498;13.446;2023-12-07T05:39:13;39.20;;;15.70;;
37517;SDS011;23366;52.498;13.446;2023-12-07T05:41:39;47.10;;;19.15;;
37517;SDS011;23366;52.498;13.446;2023-12-07T05:44:05;58.17;;;17.27;;
37517;SDS011;23366;52.498;13.446;2023-12-07T05:46:31;36.40;;;16.00;;
37517;SDS011;23366;52.498;13.446;2023-12-07T05:48:57;37.70;;;17.30;;
37517;SDS011;23366;52.498;13.446;2023-12-07T05:51:24;36.25;;;14.13;;
37517;SDS011;23366;52.498;13.446;2023-12-07T05:53:51;25.42;;;11.60;;
37517;SDS011;23366;52.498;13.446;2023-12-07T05:56:20;23.73;;;11.30;;
37517;SDS011;23366;52.498;13.446;2023-12-07T05:58:46;33.95;;;12.65;;
37517;SDS011;23366;52.498;13.446;2023-12-07T06:01:16;25.55;;;12.75;;
37517;SDS011;23366;52.498;13.446;2023-12-07T06:03:42;27.58;;;11.63;;
37517;SDS011;23366;52.498;13.446;2023-12-07T06:06:08;35.30;;;14.63;;
37517;SDS011;23366;52.498;13.446;2023-12-07T06:08:36;30.98;;;14.00;;
37517;SDS011;23366;52.498;13.446;2023-12-07T06:11:02;29.60;;;12.85;;
37517;SDS011;23366;52.498;13.446;2023-12-07T06:13:28;27.30;;;11.57;;
37517;SDS011;23366;52.498;13.446;2023-12-07T06:15:54;31.52;;;14.43;;
37517;SDS011;23366;52.498;13.446;2023-12-07T06:18:21;28.55;;;13.00;;
37517;SDS011;23366;52.498;13.446;2023-12-07T06:20:47;33.67;;;11.80;;
37517;SDS011;23366;52.498;13.446;2023-12-07T06:23:13;20.30;;;10.20;;
37517;SDS011;23366;52.498;13.446;2023-12-07T06:25:39;20.50;;;11.68;;
37517;SDS011;23366;52.498;13.446;2023-12-07T06:28:05;34.05;;;12.27;;
37517;SDS011;23366;52.498;13.446;2023-12-07T06:30:31;29.08;;;13.00;;
37517;SDS011;23366;52.498;13.446;2023-12-07T06:32:58;19.33;;;9.90;;
37517;SDS011;23366;52.498;13.446;2023-12-07T06:35:24;30.17;;;12.77;;
37517;SDS011;23366;52.498;13.446;2023-12-07T06:37:50;25.88;;;11.77;;
37517;SDS011;23366;52.498;13.446;2023-12-07T06:40:16;20.58;;;9.77;;
37517;SDS011;23366;52.498;13.446;2023-12-07T06:42:42;26.95;;;12.32;;
37517;SDS011;23366;52.498;13.446;2023-12-07T06:45:08;24.92;;;11.82;;
37517;SDS011;23366;52.498;13.446;2023-12-07T06:47:38;28.75;;;13.35;;
37517;SDS011;23366;52.498;13.446;2023-12-07T06:50:04;24.85;;;11.38;;
37517;SDS011;23366;52.498;13.446;2023-12-07T06:52:33;23.27;;;9.18;;
37517;SDS011;23366;52.498;13.446;2023-12-07T06:55:00;28.40;;;11.95;;
37517;SDS011;23366;52.498;13.446;2023-12-07T06:57:25;28.08;;;14.23;;
37517;SDS011;23366;52.498;13.446;2023-12-07T06:59:52;37.22;;;13.50;;
37517;SDS011;23366;52.498;13.446;2023-12-07T07:02:18;20.83;;;11.80;;
37517;SDS011;23366;52.498;13.446;2023-12-07T07:04:44;25.08;;;10.50;;
37517;SDS011;23366;52.498;13.446;2023-12-07T07:07:10;31.60;;;13.38;;
37517;SDS011;23366;52.498;13.446;2023-12-07T07:09:36;27.40;;;12.27;;
37517;SDS011;23366;52.498;13.446;2023-12-07T07:12:02;22.52;;;9.13;;
37517;SDS011;23366;52.498;13.446;2023-12-07T07:14:28;21.80;;;11.52;;
37517;SDS011;23366;52.498;13.446;2023-12-07T07:16:54;26.23;;;10.80;;
37517;SDS011;23366;52.498;13.446;2023-12-07T07:19:20;26.27;;;12.68;;
37517;SDS011;23366;52.498;13.446;2023-12-07T07:21:46;23.50;;;11.75;;
37517;SDS011;23366;52.498;13.446;2023-12-07T07:24:12;24.95;;;10.25;;
37517;SDS011;23366;52.498;13.446;2023-12-07T07:26:38;23.30;;;9.80;;
37517;SDS011;23366;52.498;13.446;2023-12-07T07:29:04;24.20;;;10.45;;
37517;SDS011;23366;52.498;13.446;2023-12-07T07:31:31;21.10;;;9.98;;
37517;SDS011;23366;52.498;13.446;2023-12-07T07:33:57;22.50;;;11.23;;
37517;SDS011;23366;52.498;13.446;2023-12-07T07:36:23;22.80;;;11.40;;
37517;SDS011;23366;52.498;13.446;2023-12-07T07:38:49;31.88;;;13.75;;
37517;SDS011;23366;52.498;13.446;2023-12-07T07:41:15;36.58;;;15.18;;
37517;SDS011;23366;52.498;13.446;2023-12-07T07:43:41;29.90;;;11.45;;
37517;SDS011;23366;52.498;13.446;2023-12-07T07:46:07;27.52;;;11.63;;
37517;SDS011;23366;52.498;13.446;2023-12-07T07:48:33;29.30;;;11.00;;
37517;SDS011;23366;52.498;13.446;2023-12-07T07:50:59;24.42;;;11.70;;
37517;SDS011;23366;52.498;13.446;2023-12-07T07:53:25;36.38;;;15.20;;
37517;SDS011;23366;52.498;13.446;2023-12-07T07:55:51;27.35;;;10.55;;
37517;SDS011;23366;52.498;13.446;2023-12-07T07:58:17;26.10;;;11.05;;
37517;SDS011;23366;52.498;13.446;2023-12-07T08:00:43;25.38;;;11.27;;
37517;SDS011;23366;52.498;13.446;2023-12-07T08:03:11;25.95;;;9.82;;
37517;SDS011;23366;52.498;13.446;2023-12-07T08:05:37;30.90;;;12.90;;
37517;SDS011;23366;52.498;13.446;2023-12-07T08:08:03;28.20;;;13.65;;
37517;SDS011;23366;52.498;13.446;2023-12-07T08:10:29;26.38;;;12.05;;
37517;SDS011;23366;52.498;13.446;2023-12-07T08:12:55;23.95;;;13.27;;
37517;SDS011;23366;52.498;13.446;2023-12-07T08:15:21;28.13;;;12.75;;
37517;SDS011;23366;52.498;13.446;2023-12-07T08:17:47;22.80;;;10.88;;
37517;SDS011;23366;52.498;13.446;2023-12-07T08:20:13;24.13;;;12.15;;
37517;SDS011;23366;52.498;13.446;2023-12-07T08:22:39;25.17;;;10.20;;
37517;SDS011;23366;52.498;13.446;2023-12-07T08:25:09;20.90;;;10.48;;
37517;SDS011;23366;52.498;13.446;2023-12-07T08:27:39;25.92;;;11.65;;
37517;SDS011;23366;52.498;13.446;2023-12-07T08:30:05;26.77;;;12.73;;
37517;SDS011;23366;52.498;13.446;2023-12-07T08:32:34;31.55;;;14.57;;
37517;SDS011;23366;52.498;13.446;2023-12-07T08:35:01;26.50;;;12.65;;
37517;SDS011;23366;52.498;13.446;2023-12-07T08:37:27;29.52;;;11.25;;
37517;SDS011;23366;52.498;13.446;2023-12-07T08:39:53;27.13;;;12.10;;
37517;SDS011;23366;52.498;13.446;2023-12-07T08:42:19;32.75;;;14.43;;
37517;SDS011;23366;52.498;13.446;2023-12-07T08:44:45;27.20;;;11.48;;
37517;SDS011;23366;52.498;13.446;2023-12-07T08:47:11;28.00;;;12.57;;
37517;SDS011;23366;52.498;13.446;2023-12-07T08:49:37;24.05;;;12.38;;
37517;SDS011;23366;52.498;13.446;2023-12-07T08:52:03;23.30;;;12.00;;
37517;SDS011;23366;52.498;13.446;2023-12-07T08:54:29;26.52;;;12.27;;
37517;SDS011;23366;52.498;13.446;2023-12-07T08:56:55;25.13;;;11.77;;
37517;SDS011;23366;52.498;13.446;2023-12-07T08:59:21;20.48;;;10.52;;
37517;SDS011;23366;52.498;13.446;2023-12-07T09:01:47;22.83;;;10.43;;
37517;SDS011;23366;52.498;13.446;2023-12-07T09:04:13;27.30;;;11.15;;
37517;SDS011;23366;52.498;13.446;2023-12-07T09:06:39;28.33;;;12.63;;
37517;SDS011;23366;52.498;13.446;2023-12-07T09:09:05;24.73;;;11.95;;
37517;SDS011;23366;52.498;13.446;2023-12-07T09:11:31;23.50;;;11.15;;
37517;SDS011;23366;52.498;13.446;2023-12-07T09:13:57;20.52;;;10.98;;
37517;SDS011;23366;52.498;13.446;2023-12-07T09:16:23;21.13;;;10.85;;
37517;SDS011;23366;52.498;13.446;2023-12-07T09:18:50;23.15;;;10.50;;
37517;SDS011;23366;52.498;13.446;2023-12-07T09:21:16;17.40;;;9.63;;
37517;SDS011;23366;52.498;13.446;2023-12-07T09:23:42;30.92;;;12.57;;
37517;SDS011;23366;52.498;13.446;2023-12-07T09:26:09;30.63;;;11.73;;
37517;SDS011;23366;52.498;13.446;2023-12-07T09:28:35;27.88;;;12.75;;
37517;SDS011;23366;52.498;13.446;2023-12-07T09:31:01;23.52;;;10.55;;
37517;SDS011;23366;52.498;13.446;2023-12-07T09:33:27;26.77;;;10.55;;
37517;SDS011;23366;52.498;13.446;2023-12-07T09:35:53;22.40;;;11.77;;
37517;SDS011;23366;52.498;13.446;2023-12-07T09:38:19;20.70;;;11.30;;
37517;SDS011;23366;52.498;13.446;2023-12-07T09:40:45;23.23;;;11.68;;
37517;SDS011;23366;52.498;13.446;2023-12-07T09:43:12;27.20;;;12.00;;
37517;SDS011;23366;52.498;13.446;2023-12-07T09:45:38;19.08;;;9.70;;
37517;SDS011;23366;52.498;13.446;2023-12-07T09:48:04;26.13;;;10.02;;
37517;SDS011;23366;52.498;13.446;2023-12-07T09:50:30;19.42;;;9.45;;
37517;SDS011;23366;52.498;13.446;2023-12-07T09:52:57;22.92;;;11.32;;
37517;SDS011;23366;52.498;13.446;2023-12-07T09:55:23;25.88;;;9.98;;
37517;SDS011;23366;52.498;13.446;2023-12-07T09:57:52;18.63;;;9.57;;
37517;SDS011;23366;52.498;13.446;2023-12-07T10:00:21;18.15;;;10.30;;
37517;SDS011;23366;52.498;13.446;2023-12-07T10:02:47;21.33;;;9.15;;
37517;SDS011;23366;52.498;13.446;2023-12-07T10:05:15;21.33;;;8.60;;
37517;SDS011;23366;52.498;13.446;2023-12-07T10:07:42;18.75;;;7.90;;
37517;SDS011;23366;52.498;13.446;2023-12-07T10:10:08;17.42;;;7.97;;
37517;SDS011;23366;52.498;13.446;2023-12-07T10:12:44;19.58;;;9.15;;
37517;SDS011;23366;52.498;13.446;2023-12-07T10:15:11;17.05;;;9.40;;
37517;SDS011;23366;52.498;13.446;2023-12-07T10:17:57;21.65;;;8.70;;
37517;SDS011;23366;52.498;13.446;2023-12-07T10:20:26;27.52;;;9.38;;
37517;SDS011;23366;52.498;13.446;2023-12-07T10:23:03;22.23;;;9.25;;
37517;SDS011;23366;52.498;13.446;2023-12-07T10:25:29;19.85;;;8.88;;
37517;SDS011;23366;52.498;13.446;2023-12-07T10:27:55;22.48;;;9.30;;
37517;SDS011;23366;52.498;13.446;2023-12-07T10:30:21;19.08;;;9.25;;
37517;SDS011;23366;52.498;13.446;2023-12-07T10:32:51;22.50;;;11.75;;
37517;SDS011;23366;52.498;13.446;2023-12-07T10:35:17;27.48;;;10.77;;
37517;SDS011;23366;52.498;13.446;2023-12-07T10:37:44;20.05;;;10.15;;
37517;SDS011;23366;52.498;13.446;2023-12-07T10:40:10;22.42;;;9.70;;
37517;SDS011;23366;52.498;13.446;2023-12-07T10:42:36;18.63;;;8.38;;
37517;SDS011;23366;52.498;13.446;2023-12-07T10:45:05;20.73;;;10.82;;
37517;SDS011;23366;52.498;13.446;2023-12-07T10:47:35;26.63;;;12.30;;
37517;SDS011;23366;52.498;13.446;2023-12-07T10:50:02;28.80;;;12.17;;
37517;SDS011;23366;52.498;13.446;2023-12-07T10:52:28;24.00;;;10.10;;
37517;SDS011;23366;52.498;13.446;2023-12-07T10:55:01;24.05;;;10.63;;
37517;SDS011;23366;52.498;13.446;2023-12-07T10:57:28;33.08;;;13.05;;
37517;SDS011;23366;52.498;13.446;2023-12-07T10:59:55;21.98;;;10.50;;
37517;SDS011;23366;52.498;13.446;2023-12-07T11:02:22;29.30;;;12.00;;
37517;SDS011;23366;52.498;13.446;2023-12-07T11:04:49;17.60;;;9.40;;
37517;SDS011;23366;52.498;13.446;2023-12-07T11:07:16;26.23;;;10.50;;
37517;SDS011;23366;52.498;13.446;2023-12-07T11:09:48;25.77;;;12.35;;
37517;SDS011;23366;52.498;13.446;2023-12-07T11:12:18;22.75;;;9.07;;
37517;SDS011;23366;52.498;13.446;2023-12-07T11:14:46;24.50;;;9.48;;
37517;SDS011;23366;52.498;13.446;2023-12-07T11:17:12;23.45;;;10.27;;
37517;SDS011;23366;52.498;13.446;2023-12-07T11:22:11;24.90;;;9.73;;
37517;SDS011;23366;52.498;13.446;2023-12-07T11:24:38;21.48;;;11.30;;
37517;SDS011;23366;52.498;13.446;2023-12-07T11:27:05;20.17;;;10.07;;
37517;SDS011;23366;52.498;13.446;2023-12-07T11:29:31;22.77;;;10.60;;
37517;SDS011;23366;52.498;13.446;2023-12-07T11:32:01;24.08;;;10.35;;
37517;SDS011;23366;52.498;13.446;2023-12-07T11:34:38;21.55;;;8.57;;
37517;SDS011;23366;52.498;13.446;2023-12-07T11:37:07;19.38;;;9.52;;
37517;SDS011;23366;52.498;13.446;2023-12-07T11:39:39;20.60;;;9.63;;
37517;SDS011;23366;52.498;13.446;2023-12-07T11:42:11;18.10;;;9.90;;
37517;SDS011;23366;52.498;13.446;2023-12-07T11:44:37;22.85;;;9.02;;
37517;SDS011;23366;52.498;13.446;2023-12-07T11:47:04;15.38;;;8.65;;
37517;SDS011;23366;52.498;13.446;2023-12-07T11:49:30;17.10;;;9.23;;
37517;SDS011;23366;52.498;13.446;2023-12-07T11:52:00;32.33;;;9.80;;
37517;SDS011;23366;52.498;13.446;2023-12-07T11:54:26;21.38;;;9.20;;
37517;SDS011;23366;52.498;13.446;2023-12-07T11:56:53;17.80;;;9.82;;
37517;SDS011;23366;52.498;13.446;2023-12-07T11:59:19;19.58;;;8.93;;
37517;SDS011;23366;52.498;13.446;2023-12-07T12:01:48;23.60;;;10.15;;
37517;SDS011;23366;52.498;13.446;2023-12-07T12:04:15;21.48;;;9.73;;
37517;SDS011;23366;52.498;13.446;2023-12-07T12:06:44;22.27;;;9.65;;
37517;SDS011;23366;52.498;13.446;2023-12-07T12:09:14;21.60;;;9.88;;
37517;SDS011;23366;52.498;13.446;2023-12-07T12:11:49;19.58;;;9.43;;
37517;SDS011;23366;52.498;13.446;2023-12-07T12:14:18;24.00;;;10.45;;
37517;SDS011;23366;52.498;13.446;2023-12-07T12:16:47;17.25;;;8.80;;
37517;SDS011;23366;52.498;13.446;2023-12-07T12:19:13;23.80;;;11.23;;
37517;SDS011;23366;52.498;13.446;2023-12-07T12:21:40;18.48;;;10.48;;
37517;SDS011;23366;52.498;13.446;2023-12-07T12:24:06;21.83;;;11.07;;
37517;SDS011;23366;52.498;13.446;2023-12-07T12:26:34;24.20;;;11.07;;
37517;SDS011;23366;52.498;13.446;2023-12-07T12:29:00;21.38;;;9.82;;
37517;SDS011;23366;52.498;13.446;2023-12-07T12:31:27;23.45;;;11.10;;
37517;SDS011;23366;52.498;13.446;2023-12-07T12:33:53;25.30;;;10.85;;
37517;SDS011;23366;52.498;13.446;2023-12-07T12:36:19;26.08;;;10.45;;
37517;SDS011;23366;52.498;13.446;2023-12-07T12:38:52;22.35;;;10.85;;
37517;SDS011;23366;52.498;13.446;2023-12-07T12:41:18;25.27;;;13.13;;
37517;SDS011;23366;52.498;13.446;2023-12-07T12:43:44;24.15;;;12.13;;
37517;SDS011;23366;52.498;13.446;2023-12-07T12:46:11;31.25;;;14.60;;
37517;SDS011;23366;52.498;13.446;2023-12-07T12:48:37;25.75;;;13.40;;
37517;SDS011;23366;52.498;13.446;2023-12-07T12:51:13;30.23;;;13.93;;
37517;SDS011;23366;52.498;13.446;2023-12-07T12:53:45;23.15;;;12.00;;
37517;SDS011;23366;52.498;13.446;2023-12-07T12:56:12;28.67;;;13.05;;
37517;SDS011;23366;52.498;13.446;2023-12-07T12:58:38;26.17;;;12.75;;
37517;SDS011;23366;52.498;13.446;2023-12-07T13:01:04;32.47;;;12.18;;
37517;SDS011;23366;52.498;13.446;2023-12-07T13:03:31;30.63;;;17.42;;
37517;SDS011;23366;52.498;13.446;2023-12-07T13:05:58;28.75;;;13.63;;
37517;SDS011;23366;52.498;13.446;2023-12-07T13:08:24;26.27;;;13.60;;
37517;SDS011;23366;52.498;13.446;2023-12-07T13:10:50;31.98;;;13.27;;
37517;SDS011;23366;52.498;13.446;2023-12-07T13:13:16;28.17;;;13.00;;
37517;SDS011;23366;52.498;13.446;2023-12-07T13:15:42;28.05;;;12.55;;
37517;SDS011;23366;52.498;13.446;2023-12-07T13:18:08;25.80;;;14.55;;
37517;SDS011;23366;52.498;13.446;2023-12-07T13:20:34;30.27;;;14.52;;
37517;SDS011;23366;52.498;13.446;2023-12-07T13:23:00;26.67;;;13.93;;
37517;SDS011;23366;52.498;13.446;2023-12-07T13:25:26;27.80;;;14.40;;
37517;SDS011;23366;52.498;13.446;2023-12-07T13:27:52;32.47;;;14.48;;
37517;SDS011;23366;52.498;13.446;2023-12-07T13:30:19;28.35;;;13.77;;
37517;SDS011;23366;52.498;13.446;2023-12-07T13:32:45;37.05;;;15.85;;
37517;SDS011;23366;52.498;13.446;2023-12-07T13:35:12;30.48;;;12.88;;
37517;SDS011;23366;52.498;13.446;2023-12-07T13:37:38;30.15;;;13.75;;
37517;SDS011;23366;52.498;13.446;2023-12-07T13:40:05;30.33;;;13.02;;
37517;SDS011;23366;52.498;13.446;2023-12-07T13:42:35;35.47;;;14.95;;
37517;SDS011;23366;52.498;13.446;2023-12-07T13:45:01;33.35;;;14.98;;
37517;SDS011;23366;52.498;13.446;2023-12-07T13:47:28;34.30;;;16.70;;
37517;SDS011;23366;52.498;13.446;2023-12-07T13:49:59;36.17;;;15.70;;
37517;SDS011;23366;52.498;13.446;2023-12-07T13:52:26;32.17;;;16.92;;
37517;SDS011;23366;52.498;13.446;2023-12-07T13:54:53;35.85;;;16.58;;
37517;SDS011;23366;52.498;13.446;2023-12-07T13:57:19;34.22;;;16.30;;
37517;SDS011;23366;52.498;13.446;2023-12-07T13:59:46;33.78;;;16.38;;
37517;SDS011;23366;52.498;13.446;2023-12-07T14:02:12;31.35;;;15.90;;
37517;SDS011;23366;52.498;13.446;2023-12-07T14:04:38;38.05;;;17.27;;
37517;SDS011;23366;52.498;13.446;2023-12-07T14:07:08;32.83;;;16.90;;
37517;SDS011;23366;52.498;13.446;2023-12-07T14:09:35;35.38;;;15.65;;
37517;SDS011;23366;52.498;13.446;2023-12-07T14:12:01;33.35;;;15.20;;
37517;SDS011;23366;52.498;13.446;2023-12-07T14:14:27;37.08;;;15.45;;
37517;SDS011;23366;52.498;13.446;2023-12-07T14:16:53;42.35;;;15.93;;